sensor_id;sensor_type;location;lat;lon;timestamp;pressure;altitude;pressure_sealevel;temperature;humidity
15998;BME280;8103;51.340;12.326;2023-01-28T00:02:01;101236.53;;;3.97;88.93
15998;BME280;8103;51.340;12.326;2023-01-28T00:04:28;101238.53;;;3.95;89.33
15998;BME280;8103;51.340;12.326;2023-01-28T00:06:55;101245.88;;;3.93;89.08
15998;BME280;8103;51.340;12.326;2023-01-28T00:09:22;101236.06;;;3.93;89.44
15998;BME280;8103;51.340;12.326;2023-01-28T00:11:49;101236.91;;;3.94;89.29
15998;BME280;8103;51.340;12.326;2023-01-28T00:14:16;101237.28;;;3.91;89.05
15998;BME280;8103;51.340;12.326;2023-01-28T00:16:43;101231.59;;;3.94;89.22
15998;BME280;8103;51.340;12.326;2023-01-28T00:19:10;101237.94;;;3.93;89.73
15998;BME280;8103;51.340;12.326;2023-01-28T00:21:37;101239.56;;;3.94;89.16
15998;BME280;8103;51.340;12.326;2023-01-28T00:24:05;101239.09;;;3.90;89.36
15998;BME280;8103;51.340;12.326;2023-01-28T00:26:32;101240.09;;;3.89;88.64
15998;BME280;8103;51.340;12.326;2023-01-28T00:28:59;101233.97;;;3.89;89.30
15998;BME280;8103;51.340;12.326;2023-01-28T00:31:27;101231.31;;;3.89;89.08
15998;BME280;8103;51.340;12.326;2023-01-28T00:33:56;101238.28;;;3.90;88.49
15998;BME280;8103;51.340;12.326;2023-01-28T00:36:25;101244.56;;;3.89;88.02
15998;BME280;8103;51.340;12.326;2023-01-28T00:38:57;101240.47;;;3.86;88.09
15998;BME280;8103;51.340;12.326;2023-01-28T00:41:28;101231.69;;;3.86;88.98
15998;BME280;8103;51.340;12.326;2023-01-28T00:43:55;101234.34;;;3.86;88.56
15998;BME280;8103;51.340;12.326;2023-01-28T00:46:23;101242.47;;;3.84;88.36
15998;BME280;8103;51.340;12.326;2023-01-28T00:48:53;101240.66;;;3.85;88.17
15998;BME280;8103;51.340;12.326;2023-01-28T00:51:20;101234.50;;;3.84;88.35
15998;BME280;8103;51.340;12.326;2023-01-28T00:53:47;101239.81;;;3.84;88.55
15998;BME280;8103;51.340;12.326;2023-01-28T00:56:16;101251.25;;;3.85;88.00
15998;BME280;8103;51.340;12.326;2023-01-28T00:58:44;101251.25;;;3.85;87.61
15998;BME280;8103;51.340;12.326;2023-01-28T01:01:15;101247.34;;;3.81;87.72
15998;BME280;8103;51.340;12.326;2023-01-28T01:03:44;101247.34;;;3.81;88.10
15998;BME280;8103;51.340;12.326;2023-01-28T01:06:14;101247.34;;;3.81;87.41
15998;BME280;8103;51.340;12.326;2023-01-28T01:08:41;101246.50;;;3.80;87.40
15998;BME280;8103;51.340;12.326;2023-01-28T01:11:16;101253.09;;;3.84;87.67
15998;BME280;8103;51.340;12.326;2023-01-28T01:13:43;101243.31;;;3.85;87.52
15998;BME280;8103;51.340;12.326;2023-01-28T01:16:14;101244.31;;;3.84;87.48
15998;BME280;8103;51.340;12.326;2023-01-28T01:18:44;101246.59;;;3.87;87.21
15998;BME280;8103;51.340;12.326;2023-01-28T01:21:16;101253.09;;;3.84;87.18
15998;BME280;8103;51.340;12.326;2023-01-28T01:23:43;101244.31;;;3.84;87.39
15998;BME280;8103;51.340;12.326;2023-01-28T01:26:10;101249.25;;;3.87;87.04
15998;BME280;8103;51.340;12.326;2023-01-28T01:28:38;101253.63;;;3.80;86.08
15998;BME280;8103;51.340;12.326;2023-01-28T01:31:17;101250.97;;;3.80;86.45
15998;BME280;8103;51.340;12.326;2023-01-28T01:33:47;101246.50;;;3.80;86.51
15998;BME280;8103;51.340;12.326;2023-01-28T01:36:16;101244.88;;;3.79;86.78
15998;BME280;8103;51.340;12.326;2023-01-28T01:38:45;101250.97;;;3.80;86.90
15998;BME280;8103;51.340;12.326;2023-01-28T01:41:29;101251.50;;;3.75;86.31
15998;BME280;8103;51.340;12.326;2023-01-28T01:44:00;101258.38;;;3.70;86.76
15998;BME280;8103;51.340;12.326;2023-01-28T01:46:45;101258.38;;;3.70;86.48
15998;BME280;8103;51.340;12.326;2023-01-28T01:49:24;101259.03;;;3.72;86.51
15998;BME280;8103;51.340;12.326;2023-01-28T01:52:08;101254.38;;;3.74;86.93
15998;BME280;8103;51.340;12.326;2023-01-28T01:54:38;101255.38;;;3.73;85.61
15998;BME280;8103;51.340;12.326;2023-01-28T01:57:10;101254.38;;;3.74;86.41
15998;BME280;8103;51.340;12.326;2023-01-28T01:59:42;101259.88;;;3.72;85.84
15998;BME280;8103;51.340;12.326;2023-01-28T02:02:11;101262.69;;;3.71;86.71
15998;BME280;8103;51.340;12.326;2023-01-28T02:04:42;101265.34;;;3.71;85.58
15998;BME280;8103;51.340;12.326;2023-01-28T02:07:13;101274.09;;;3.71;86.17
15998;BME280;8103;51.340;12.326;2023-01-28T02:09:41;101276.13;;;3.69;85.28
15998;BME280;8103;51.340;12.326;2023-01-28T02:12:16;101270.66;;;3.71;86.40
15998;BME280;8103;51.340;12.326;2023-01-28T02:14:58;101275.84;;;3.64;85.52
15998;BME280;8103;51.340;12.326;2023-01-28T02:17:27;101271.56;;;3.63;85.81
15998;BME280;8103;51.340;12.326;2023-01-28T02:20:49;101280.03;;;3.59;85.51
15998;BME280;8103;51.340;12.326;2023-01-28T02:26:46;101286.50;;;3.56;86.02
15998;BME280;8103;51.340;12.326;2023-01-28T02:29:53;101285.69;;;3.56;85.25
15998;BME280;8103;51.340;12.326;2023-01-28T02:32:47;101273.06;;;3.58;84.92
15998;BME280;8103;51.340;12.326;2023-01-28T02:38:39;101279.19;;;3.58;85.07
15998;BME280;8103;51.340;12.326;2023-01-28T02:41:19;101281.03;;;3.58;85.25
15998;BME280;8103;51.340;12.326;2023-01-28T02:43:46;101282.22;;;3.55;84.73
15998;BME280;8103;51.340;12.326;2023-01-28T02:49:12;101281.78;;;3.52;85.64
15998;BME280;8103;51.340;12.326;2023-01-28T02:52:13;101283.94;;;3.48;85.46
15998;BME280;8103;51.340;12.326;2023-01-28T02:55:22;101284.13;;;3.47;85.80
15998;BME280;8103;51.340;12.326;2023-01-28T02:58:13;101279.72;;;3.39;84.87
15998;BME280;8103;51.340;12.326;2023-01-28T03:03:58;101285.19;;;3.38;85.38
15998;BME280;8103;51.340;12.326;2023-01-28T03:06:42;101286.56;;;3.34;84.85
15998;BME280;8103;51.340;12.326;2023-01-28T03:09:13;101284.09;;;3.32;84.78
15998;BME280;8103;51.340;12.326;2023-01-28T03:12:10;101284.63;;;3.28;84.77
15998;BME280;8103;51.340;12.326;2023-01-28T03:15:11;101287.63;;;3.25;85.21
15998;BME280;8103;51.340;12.326;2023-01-28T03:18:22;101285.69;;;3.19;84.85
15998;BME280;8103;51.340;12.326;2023-01-28T03:21:31;101291.63;;;3.21;85.08
15998;BME280;8103;51.340;12.326;2023-01-28T03:24:25;101293.16;;;3.15;85.11
15998;BME280;8103;51.340;12.326;2023-01-28T03:27:30;101299.94;;;3.18;85.78
15998;BME280;8103;51.340;12.326;2023-01-28T03:30:33;101303.88;;;3.22;84.91
15998;BME280;8103;51.340;12.326;2023-01-28T03:33:23;101309.16;;;3.22;86.02
15998;BME280;8103;51.340;12.326;2023-01-28T03:36:10;101313.75;;;3.28;85.42
15998;BME280;8103;51.340;12.326;2023-01-28T03:38:55;101313.41;;;3.31;85.44
15998;BME280;8103;51.340;12.326;2023-01-28T03:41:25;101322.63;;;3.35;84.91
15998;BME280;8103;51.340;12.326;2023-01-28T03:43:53;101317.00;;;3.38;85.10
15998;BME280;8103;51.340;12.326;2023-01-28T03:46:20;101320.66;;;3.37;84.51
15998;BME280;8103;51.340;12.326;2023-01-28T03:48:47;101318.00;;;3.37;85.24
15998;BME280;8103;51.340;12.326;2023-01-28T03:51:14;101324.94;;;3.38;85.67
15998;BME280;8103;51.340;12.326;2023-01-28T03:53:44;101321.28;;;3.39;84.60
15998;BME280;8103;51.340;12.326;2023-01-28T03:56:10;101319.19;;;3.34;85.73
15998;BME280;8103;51.340;12.326;2023-01-28T03:58:44;101309.38;;;3.35;85.66
15998;BME280;8103;51.340;12.326;2023-01-28T04:01:22;101311.03;;;3.36;84.80
15998;BME280;8103;51.340;12.326;2023-01-28T04:03:50;101314.06;;;3.33;84.95
15998;BME280;8103;51.340;12.326;2023-01-28T04:06:16;101318.53;;;3.32;85.45
15998;BME280;8103;51.340;12.326;2023-01-28T04:08:43;101317.25;;;3.28;84.67
15998;BME280;8103;51.340;12.326;2023-01-28T04:11:14;101318.03;;;3.29;84.72
15998;BME280;8103;51.340;12.326;2023-01-28T04:13:42;101318.22;;;3.27;85.26
15998;BME280;8103;51.340;12.326;2023-01-28T04:16:10;101323.41;;;3.21;85.26
15998;BME280;8103;51.340;12.326;2023-01-28T04:18:38;101333.66;;;3.24;84.56
15998;BME280;8103;51.340;12.326;2023-01-28T04:21:05;101323.06;;;3.24;85.03
15998;BME280;8103;51.340;12.326;2023-01-28T04:23:32;101330.34;;;3.22;85.22
15998;BME280;8103;51.340;12.326;2023-01-28T04:25:59;101336.50;;;3.22;85.25
15998;BME280;8103;51.340;12.326;2023-01-28T04:28:25;101337.66;;;3.20;85.11
15998;BME280;8103;51.340;12.326;2023-01-28T04:30:52;101341.31;;;3.19;85.30
15998;BME280;8103;51.340;12.326;2023-01-28T04:33:19;101339.31;;;3.21;85.18
15998;BME280;8103;51.340;12.326;2023-01-28T04:35:46;101340.13;;;3.21;85.37
15998;BME280;8103;51.340;12.326;2023-01-28T04:38:14;101336.13;;;3.25;85.56
15998;BME280;8103;51.340;12.326;2023-01-28T04:40:40;101336.13;;;3.25;84.97
15998;BME280;8103;51.340;12.326;2023-01-28T04:43:08;101335.13;;;3.26;85.15
15998;BME280;8103;51.340;12.326;2023-01-28T04:45:35;101337.28;;;3.23;85.03
15998;BME280;8103;51.340;12.326;2023-01-28T04:48:01;101344.63;;;3.21;84.43
15998;BME280;8103;51.340;12.326;2023-01-28T04:50:28;101343.28;;;3.17;85.00
15998;BME280;8103;51.340;12.326;2023-01-28T04:52:55;101339.66;;;3.18;85.15
15998;BME280;8103;51.340;12.326;2023-01-28T04:55:22;101342.50;;;3.16;84.99
15998;BME280;8103;51.340;12.326;2023-01-28T04:57:48;101346.94;;;3.16;84.50
15998;BME280;8103;51.340;12.326;2023-01-28T05:00:16;101341.03;;;3.14;85.24
15998;BME280;8103;51.340;12.326;2023-01-28T05:02:43;101342.00;;;3.13;84.77
15998;BME280;8103;51.340;12.326;2023-01-28T05:05:09;101350.63;;;3.15;84.68
15998;BME280;8103;51.340;12.326;2023-01-28T05:07:36;101343.69;;;3.14;85.12
15998;BME280;8103;51.340;12.326;2023-01-28T05:10:04;101353.25;;;3.15;85.43
15998;BME280;8103;51.340;12.326;2023-01-28T05:12:31;101348.31;;;3.12;85.32
15998;BME280;8103;51.340;12.326;2023-01-28T05:15:00;101359.56;;;3.14;85.60
15998;BME280;8103;51.340;12.326;2023-01-28T05:17:27;101362.22;;;3.14;84.69
15998;BME280;8103;51.340;12.326;2023-01-28T05:19:54;101361.56;;;3.12;84.98
15998;BME280;8103;51.340;12.326;2023-01-28T05:22:21;101370.50;;;3.11;84.56
15998;BME280;8103;51.340;12.326;2023-01-28T05:24:48;101372.50;;;3.09;85.07
15998;BME280;8103;51.340;12.326;2023-01-28T05:27:15;101372.69;;;3.07;84.78
15998;BME280;8103;51.340;12.326;2023-01-28T05:29:42;101374.13;;;3.10;84.71
15998;BME280;8103;51.340;12.326;2023-01-28T05:32:09;101377.78;;;3.09;84.62
15998;BME280;8103;51.340;12.326;2023-01-28T05:34:36;101383.09;;;3.09;84.69
15998;BME280;8103;51.340;12.326;2023-01-28T05:37:03;101380.78;;;3.06;84.87
15998;BME280;8103;51.340;12.326;2023-01-28T05:39:29;101388.75;;;3.06;84.91
15998;BME280;8103;51.340;12.326;2023-01-28T05:41:57;101382.44;;;3.07;84.48
15998;BME280;8103;51.340;12.326;2023-01-28T05:44:24;101382.59;;;3.05;84.08
15998;BME280;8103;51.340;12.326;2023-01-28T05:46:51;101385.09;;;3.07;84.13
15998;BME280;8103;51.340;12.326;2023-01-28T05:49:17;101390.38;;;3.07;84.50
15998;BME280;8103;51.340;12.326;2023-01-28T05:51:44;101387.72;;;3.07;84.14
15998;BME280;8103;51.340;12.326;2023-01-28T05:54:11;101396.16;;;3.10;83.79
15998;BME280;8103;51.340;12.326;2023-01-28T05:56:38;101394.34;;;3.11;83.58
15998;BME280;8103;51.340;12.326;2023-01-28T05:59:06;101402.31;;;3.11;83.47
15998;BME280;8103;51.340;12.326;2023-01-28T06:01:32;101405.94;;;3.10;83.49
15998;BME280;8103;51.340;12.326;2023-01-28T06:03:59;101403.09;;;3.11;84.28
15998;BME280;8103;51.340;12.326;2023-01-28T06:06:26;101400.28;;;3.13;83.83
15998;BME280;8103;51.340;12.326;2023-01-28T06:08:53;101403.28;;;3.10;83.33
15998;BME280;8103;51.340;12.326;2023-01-28T06:11:24;101404.28;;;3.09;83.62
15998;BME280;8103;51.340;12.326;2023-01-28T06:13:51;101411.56;;;3.07;83.36
15998;BME280;8103;51.340;12.326;2023-01-28T06:16:18;101411.56;;;3.07;83.66
15998;BME280;8103;51.340;12.326;2023-01-28T06:18:45;101409.09;;;3.05;83.77
15998;BME280;8103;51.340;12.326;2023-01-28T06:21:12;101410.94;;;3.05;84.21
15998;BME280;8103;51.340;12.326;2023-01-28T06:23:38;101401.97;;;3.06;84.11
15998;BME280;8103;51.340;12.326;2023-01-28T06:26:05;101414.22;;;3.07;83.88
15998;BME280;8103;51.340;12.326;2023-01-28T06:28:32;101412.56;;;3.06;84.03
15998;BME280;8103;51.340;12.326;2023-01-28T06:30:59;101422.50;;;3.04;83.07
15998;BME280;8103;51.340;12.326;2023-01-28T06:33:25;101422.03;;;3.00;83.12
15998;BME280;8103;51.340;12.326;2023-01-28T06:35:54;101423.84;;;3.00;83.58
15998;BME280;8103;51.340;12.326;2023-01-28T06:38:21;101433.44;;;3.01;82.98
15998;BME280;8103;51.340;12.326;2023-01-28T06:40:52;101427.81;;;3.04;82.88
15998;BME280;8103;51.340;12.326;2023-01-28T06:43:22;101427.81;;;3.04;83.67
15998;BME280;8103;51.340;12.326;2023-01-28T06:45:54;101433.44;;;3.01;83.12
15998;BME280;8103;51.340;12.326;2023-01-28T06:48:21;101435.47;;;2.99;82.76
15998;BME280;8103;51.340;12.326;2023-01-28T06:50:48;101439.09;;;2.98;82.87
15998;BME280;8103;51.340;12.326;2023-01-28T06:53:16;101448.03;;;2.97;81.83
15998;BME280;8103;51.340;12.326;2023-01-28T06:55:43;101457.00;;;2.96;81.23
15998;BME280;8103;51.340;12.326;2023-01-28T06:58:10;101450.41;;;2.92;81.79
15998;BME280;8103;51.340;12.326;2023-01-28T07:00:37;101442.44;;;2.92;81.51
15998;BME280;8103;51.340;12.326;2023-01-28T07:03:04;101452.69;;;2.95;81.12
15998;BME280;8103;51.340;12.326;2023-01-28T07:05:31;101451.34;;;2.99;80.66
15998;BME280;8103;51.340;12.326;2023-01-28T07:07:58;101454.63;;;3.01;80.35
15998;BME280;8103;51.340;12.326;2023-01-28T07:10:25;101453.66;;;3.02;80.13
15998;BME280;8103;51.340;12.326;2023-01-28T07:12:51;101458.94;;;3.02;80.25
15998;BME280;8103;51.340;12.326;2023-01-28T07:15:18;101460.94;;;3.00;79.66
15998;BME280;8103;51.340;12.326;2023-01-28T07:17:45;101454.63;;;3.01;79.66
15998;BME280;8103;51.340;12.326;2023-01-28T07:20:13;101461.59;;;3.02;79.13
15998;BME280;8103;51.340;12.326;2023-01-28T07:22:44;101462.91;;;3.06;78.95
15998;BME280;8103;51.340;12.326;2023-01-28T07:25:13;101471.34;;;3.09;78.81
15998;BME280;8103;51.340;12.326;2023-01-28T07:27:49;101461.56;;;3.10;77.85
15998;BME280;8103;51.340;12.326;2023-01-28T07:30:18;101463.84;;;3.13;74.61
15998;BME280;8103;51.340;12.326;2023-01-28T07:32:46;101461.22;;;3.13;74.96
15998;BME280;8103;51.340;12.326;2023-01-28T07:35:18;101449.50;;;3.07;70.70
15998;BME280;8103;51.340;12.326;2023-01-28T07:37:54;101459.41;;;3.05;71.76
15998;BME280;8103;51.340;12.326;2023-01-28T07:40:22;101470.34;;;3.10;70.96
15998;BME280;8103;51.340;12.326;2023-01-28T07:42:49;101466.22;;;3.08;72.01
15998;BME280;8103;51.340;12.326;2023-01-28T07:45:16;101461.91;;;3.07;71.37
15998;BME280;8103;51.340;12.326;2023-01-28T07:47:43;101469.22;;;3.05;71.40
15998;BME280;8103;51.340;12.326;2023-01-28T07:50:10;101467.84;;;3.09;70.62
15998;BME280;8103;51.340;12.326;2023-01-28T07:52:37;101467.50;;;3.12;70.56
15998;BME280;8103;51.340;12.326;2023-01-28T07:55:11;101475.47;;;3.12;69.41
15998;BME280;8103;51.340;12.326;2023-01-28T07:57:53;101476.47;;;3.11;68.45
15998;BME280;8103;51.340;12.326;2023-01-28T08:04:26;101481.75;;;3.11;67.30
15998;BME280;8103;51.340;12.326;2023-01-28T08:06:52;101486.06;;;3.12;66.92
15998;BME280;8103;51.340;12.326;2023-01-28T08:13:19;101480.72;;;3.20;67.08
15998;BME280;8103;51.340;12.326;2023-01-28T08:15:46;101481.38;;;3.22;66.34
15998;BME280;8103;51.340;12.326;2023-01-28T08:18:15;101477.75;;;3.15;65.70
15998;BME280;8103;51.340;12.326;2023-01-28T08:20:43;101483.06;;;3.15;65.43
15998;BME280;8103;51.340;12.326;2023-01-28T08:23:17;101485.19;;;3.19;65.40
15998;BME280;8103;51.340;12.326;2023-01-28T08:25:45;101475.41;;;3.20;65.42
15998;BME280;8103;51.340;12.326;2023-01-28T08:28:14;101480.72;;;3.20;65.30
15998;BME280;8103;51.340;12.326;2023-01-28T08:30:41;101480.34;;;3.23;64.43
15998;BME280;8103;51.340;12.326;2023-01-28T08:33:11;101487.00;;;3.27;64.39
15998;BME280;8103;51.340;12.326;2023-01-28T08:35:38;101492.91;;;3.29;64.71
15998;BME280;8103;51.340;12.326;2023-01-28T08:38:07;101489.13;;;3.31;65.52
15998;BME280;8103;51.340;12.326;2023-01-28T08:40:35;101487.59;;;3.37;65.11
15998;BME280;8103;51.340;12.326;2023-01-28T08:43:02;101486.91;;;3.43;64.87
15998;BME280;8103;51.340;12.326;2023-01-28T08:45:30;101483.91;;;3.46;65.14
15998;BME280;8103;51.340;12.326;2023-01-28T08:48:02;101489.91;;;3.40;64.71
15998;BME280;8103;51.340;12.326;2023-01-28T08:50:36;101485.94;;;3.36;65.71
15998;BME280;8103;51.340;12.326;2023-01-28T08:53:17;101477.97;;;3.36;64.97
15998;BME280;8103;51.340;12.326;2023-01-28T08:55:45;101486.59;;;3.38;64.28
15998;BME280;8103;51.340;12.326;2023-01-28T08:58:16;101493.84;;;3.44;64.48
15998;BME280;8103;51.340;12.326;2023-01-28T09:00:44;101489.84;;;3.48;64.58
15998;BME280;8103;51.340;12.326;2023-01-28T09:03:11;101496.81;;;3.49;63.83
15998;BME280;8103;51.340;12.326;2023-01-28T09:05:38;101507.25;;;3.50;63.43
15998;BME280;8103;51.340;12.326;2023-01-28T09:08:09;101507.25;;;3.50;63.65
15998;BME280;8103;51.340;12.326;2023-01-28T09:10:36;101507.72;;;3.54;63.16
15998;BME280;8103;51.340;12.326;2023-01-28T09:13:14;101517.31;;;3.55;62.09
15998;BME280;8103;51.340;12.326;2023-01-28T09:15:42;101514.97;;;3.60;62.26
15998;BME280;8103;51.340;12.326;2023-01-28T09:18:09;101514.13;;;3.59;62.11
15998;BME280;8103;51.340;12.326;2023-01-28T09:20:36;101517.63;;;3.60;61.83
15998;BME280;8103;51.340;12.326;2023-01-28T09:27:09;101521.56;;;3.64;60.44
15998;BME280;8103;51.340;12.326;2023-01-28T09:29:36;101519.75;;;3.64;60.83
15998;BME280;8103;51.340;12.326;2023-01-28T09:32:05;101527.19;;;3.69;59.93
15998;BME280;8103;51.340;12.326;2023-01-28T09:34:33;101525.03;;;3.72;59.56
15998;BME280;8103;51.340;12.326;2023-01-28T09:37:00;101527.28;;;3.75;59.88
15998;BME280;8103;51.340;12.326;2023-01-28T09:39:27;101543.19;;;3.75;59.82
15998;BME280;8103;51.340;12.326;2023-01-28T09:47:57;101545.59;;;3.62;61.14
15998;BME280;8103;51.340;12.326;2023-01-28T09:50:38;101556.38;;;3.61;61.06
15998;BME280;8103;51.340;12.326;2023-01-28T09:53:16;101553.25;;;3.57;62.34
15998;BME280;8103;51.340;12.326;2023-01-28T09:55:59;101546.44;;;3.63;61.17
15998;BME280;8103;51.340;12.326;2023-01-28T09:58:27;101558.16;;;3.68;61.24
15998;BME280;8103;51.340;12.326;2023-01-28T10:07:21;101567.22;;;3.82;61.26
15998;BME280;8103;51.340;12.326;2023-01-28T10:10:07;101565.56;;;3.81;61.45
15998;BME280;8103;51.340;12.326;2023-01-28T10:13:10;101562.25;;;3.79;59.93
15998;BME280;8103;51.340;12.326;2023-01-28T10:16:04;101562.59;;;3.76;60.06
15998;BME280;8103;51.340;12.326;2023-01-28T10:19:01;101565.91;;;3.78;60.09
15998;BME280;8103;51.340;12.326;2023-01-28T10:24:37;101565.56;;;3.81;60.09
15998;BME280;8103;51.340;12.326;2023-01-28T10:27:18;101567.22;;;3.82;60.42
15998;BME280;8103;51.340;12.326;2023-01-28T10:29:49;101560.88;;;3.91;58.75
15998;BME280;8103;51.340;12.326;2023-01-28T10:32:33;101554.16;;;4.03;58.05
15998;BME280;8103;51.340;12.326;2023-01-28T10:35:02;101554.16;;;4.03;58.14
15998;BME280;8103;51.340;12.326;2023-01-28T10:37:36;101550.16;;;4.07;58.33
15998;BME280;8103;51.340;12.326;2023-01-28T10:40:16;101548.75;;;4.19;57.91
15998;BME280;8103;51.340;12.326;2023-01-28T10:42:44;101542.72;;;4.25;58.44
15998;BME280;8103;51.340;12.326;2023-01-28T10:45:25;101549.13;;;4.30;57.89
15998;BME280;8103;51.340;12.326;2023-01-28T10:48:28;101534.31;;;4.36;57.47
15998;BME280;8103;51.340;12.326;2023-01-28T10:50:59;101542.28;;;4.36;57.95
15998;BME280;8103;51.340;12.326;2023-01-28T10:53:37;101550.25;;;4.36;56.65
15998;BME280;8103;51.340;12.326;2023-01-28T10:56:17;101542.13;;;4.37;56.58
15998;BME280;8103;51.340;12.326;2023-01-28T10:59:06;101540.13;;;4.39;57.25
15998;BME280;8103;51.340;12.326;2023-01-28T11:01:51;101544.22;;;4.42;58.06
15998;BME280;8103;51.340;12.326;2023-01-28T11:04:24;101542.94;;;4.38;57.50
15998;BME280;8103;51.340;12.326;2023-01-28T11:07:00;101546.13;;;4.33;58.25
15998;BME280;8103;51.340;12.326;2023-01-28T11:09:35;101540.91;;;4.40;57.38
15998;BME280;8103;51.340;12.326;2023-01-28T11:12:19;101545.88;;;4.43;56.65
15998;BME280;8103;51.340;12.326;2023-01-28T11:14:55;101533.88;;;4.32;56.37
15998;BME280;8103;51.340;12.326;2023-01-28T11:17:26;101531.63;;;4.44;56.50
15998;BME280;8103;51.340;12.326;2023-01-28T11:19:58;101531.72;;;4.65;55.84
15998;BME280;8103;51.340;12.326;2023-01-28T11:22:35;101536.69;;;4.68;55.53
15998;BME280;8103;51.340;12.326;2023-01-28T11:25:15;101544.41;;;4.78;56.33
15998;BME280;8103;51.340;12.326;2023-01-28T11:27:49;101535.34;;;4.87;55.74
15998;BME280;8103;51.340;12.326;2023-01-28T11:30:27;101531.69;;;4.88;56.76
15998;BME280;8103;51.340;12.326;2023-01-28T11:33:17;101535.63;;;4.92;56.25
15998;BME280;8103;51.340;12.326;2023-01-28T11:36:14;101531.97;;;4.93;56.55
15998;BME280;8103;51.340;12.326;2023-01-28T11:39:16;101527.38;;;5.01;56.57
15998;BME280;8103;51.340;12.326;2023-01-28T11:41:43;101536.63;;;5.05;55.64
15998;BME280;8103;51.340;12.326;2023-01-28T11:50:23;101528.31;;;5.08;54.49
15998;BME280;8103;51.340;12.326;2023-01-28T11:56:13;101527.81;;;4.90;54.68
15998;BME280;8103;51.340;12.326;2023-01-28T12:02:08;101519.84;;;4.90;54.75
15998;BME280;8103;51.340;12.326;2023-01-28T12:08:19;101516.81;;;4.79;54.78
15998;BME280;8103;51.340;12.326;2023-01-28T12:15:20;101516.44;;;4.67;54.87
15998;BME280;8103;51.340;12.326;2023-01-28T12:21:03;101512.00;;;4.45;56.05
15998;BME280;8103;51.340;12.326;2023-01-28T12:26:52;101506.34;;;4.48;56.17
15998;BME280;8103;51.340;12.326;2023-01-28T12:30:09;101511.19;;;4.44;57.04
15998;BME280;8103;51.340;12.326;2023-01-28T12:33:07;101506.59;;;4.38;56.96
15998;BME280;8103;51.340;12.326;2023-01-28T12:36:14;101505.13;;;4.36;57.10
15998;BME280;8103;51.340;12.326;2023-01-28T12:42:26;101497.97;;;4.22;58.47
15998;BME280;8103;51.340;12.326;2023-01-28T12:45:19;101488.22;;;4.14;59.17
15998;BME280;8103;51.340;12.326;2023-01-28T12:48:02;101491.06;;;4.13;59.12
15998;BME280;8103;51.340;12.326;2023-01-28T12:53:37;101487.97;;;4.24;60.39
15998;BME280;8103;51.340;12.326;2023-01-28T12:56:32;101490.28;;;4.27;60.95
15998;BME280;8103;51.340;12.326;2023-01-28T12:59:14;101493.41;;;4.30;60.89
15998;BME280;8103;51.340;12.326;2023-01-28T13:02:19;101485.63;;;4.29;59.77
15998;BME280;8103;51.340;12.326;2023-01-28T13:05:16;101485.97;;;4.26;60.23
15998;BME280;8103;51.340;12.326;2023-01-28T13:08:10;101494.00;;;4.18;59.96
15998;BME280;8103;51.340;12.326;2023-01-28T13:10:46;101493.53;;;4.14;59.07
15998;BME280;8103;51.340;12.326;2023-01-28T13:15:51;101502.38;;;4.07;59.47
15998;BME280;8103;51.340;12.326;2023-01-28T13:26:50;101507.47;;;3.94;61.31
15998;BME280;8103;51.340;12.326;2023-01-28T13:31:55;101513.03;;;3.99;60.85
15998;BME280;8103;51.340;12.326;2023-01-28T13:34:41;101522.38;;;3.95;60.34
15998;BME280;8103;51.340;12.326;2023-01-28T13:37:37;101520.75;;;3.86;61.41
15998;BME280;8103;51.340;12.326;2023-01-28T13:40:26;101524.78;;;3.82;61.25
15998;BME280;8103;51.340;12.326;2023-01-28T13:43:44;101519.16;;;3.77;61.67
15998;BME280;8103;51.340;12.326;2023-01-28T13:46:29;101518.81;;;3.80;62.11
15998;BME280;8103;51.340;12.326;2023-01-28T13:48:58;101530.91;;;3.82;61.89
15998;BME280;8103;51.340;12.326;2023-01-28T13:51:31;101529.59;;;3.78;62.23
15998;BME280;8103;51.340;12.326;2023-01-28T13:54:05;101528.78;;;3.78;61.70
15998;BME280;8103;51.340;12.326;2023-01-28T13:57:30;101523.59;;;3.84;62.01
15998;BME280;8103;51.340;12.326;2023-01-28T14:00:36;101521.44;;;3.88;61.89
15998;BME280;8103;51.340;12.326;2023-01-28T14:10:11;101514.78;;;4.14;61.78
15998;BME280;8103;51.340;12.326;2023-01-28T14:18:40;101507.06;;;4.42;60.78
15998;BME280;8103;51.340;12.326;2023-01-28T14:21:20;101507.78;;;4.36;60.45
15998;BME280;8103;51.340;12.326;2023-01-28T14:23:55;101500.56;;;4.44;60.12
15998;BME280;8103;51.340;12.326;2023-01-28T14:26:38;101505.47;;;4.70;59.10
15998;BME280;8103;51.340;12.326;2023-01-28T14:29:36;101502.28;;;4.89;58.71
15998;BME280;8103;51.340;12.326;2023-01-28T14:32:21;101511.03;;;4.75;57.23
15998;BME280;8103;51.340;12.326;2023-01-28T14:34:54;101511.22;;;4.59;57.65
15998;BME280;8103;51.340;12.326;2023-01-28T14:37:28;101513.50;;;4.62;57.42
15998;BME280;8103;51.340;12.326;2023-01-28T14:40:05;101516.63;;;4.51;57.32
15998;BME280;8103;51.340;12.326;2023-01-28T14:42:45;101505.34;;;4.49;56.99
15998;BME280;8103;51.340;12.326;2023-01-28T14:45:50;101502.41;;;4.44;57.20
15998;BME280;8103;51.340;12.326;2023-01-28T14:55:39;101498.59;;;4.24;57.05
15998;BME280;8103;51.340;12.326;2023-01-28T14:58:33;101500.63;;;4.22;57.06
15998;BME280;8103;51.340;12.326;2023-01-28T15:01:01;101495.09;;;4.09;57.21
15998;BME280;8103;51.340;12.326;2023-01-28T15:03:29;101508.00;;;4.12;58.00
15998;BME280;8103;51.340;12.326;2023-01-28T15:06:16;101490.06;;;4.14;58.02
15998;BME280;8103;51.340;12.326;2023-01-28T15:08:43;101485.59;;;4.14;57.88
15998;BME280;8103;51.340;12.326;2023-01-28T15:15:27;101480.22;;;4.00;58.79
15998;BME280;8103;51.340;12.326;2023-01-28T15:22:05;101476.22;;;4.04;58.51
15998;BME280;8103;51.340;12.326;2023-01-28T15:24:40;101472.41;;;3.84;58.67
15998;BME280;8103;51.340;12.326;2023-01-28T15:27:17;101479.16;;;3.64;59.31
15998;BME280;8103;51.340;12.326;2023-01-28T15:29:54;101476.66;;;3.40;59.63
15998;BME280;8103;51.340;12.326;2023-01-28T15:32:29;101479.91;;;3.19;59.79
15998;BME280;8103;51.340;12.326;2023-01-28T15:34:59;101483.75;;;3.09;61.07